sensor_id;sensor_type;location;lat;lon;timestamp;temperature;humidity
75893;DHT22;64572;50.950;3.676;2022-12-29T00:01:48;11.50;96.40
75893;DHT22;64572;50.950;3.676;2022-12-29T00:04:15;11.60;96.00
75893;DHT22;64572;50.950;3.676;2022-12-29T00:06:41;11.60;95.80
75893;DHT22;64572;50.950;3.676;2022-12-29T00:09:07;11.60;95.80
75893;DHT22;64572;50.950;3.676;2022-12-29T00:11:33;11.60;95.80
75893;DHT22;64572;50.950;3.676;2022-12-29T00:13:59;11.60;95.60
75893;DHT22;64572;50.950;3.676;2022-12-29T00:16:45;11.70;95.50
75893;DHT22;64572;50.950;3.676;2022-12-29T00:19:11;11.70;95.10
75893;DHT22;64572;50.950;3.676;2022-12-29T00:21:57;11.70;95.10
75893;DHT22;64572;50.950;3.676;2022-12-29T00:24:42;11.70;95.00
75893;DHT22;64572;50.950;3.676;2022-12-29T00:27:27;11.70;95.00
75893;DHT22;64572;50.950;3.676;2022-12-29T00:30:15;11.60;94.90
75893;DHT22;64572;50.950;3.676;2022-12-29T00:32:59;11.60;94.70
75893;DHT22;64572;50.950;3.676;2022-12-29T00:35:58;11.60;94.30
75893;DHT22;64572;50.950;3.676;2022-12-29T00:38:25;11.70;94.10
75893;DHT22;64572;50.950;3.676;2022-12-29T00:41:09;11.70;94.00
75893;DHT22;64572;50.950;3.676;2022-12-29T00:43:53;11.70;93.70
75893;DHT22;64572;50.950;3.676;2022-12-29T00:46:32;11.70;93.60
75893;DHT22;64572;50.950;3.676;2022-12-29T00:48:58;11.90;93.20
75893;DHT22;64572;50.950;3.676;2022-12-29T00:51:42;11.80;93.30
75893;DHT22;64572;50.950;3.676;2022-12-29T00:54:08;11.90;93.10
75893;DHT22;64572;50.950;3.676;2022-12-29T00:56:34;11.90;93.00
75893;DHT22;64572;50.950;3.676;2022-12-29T00:59:01;11.90;92.90
75893;DHT22;64572;50.950;3.676;2022-12-29T01:01:27;11.90;92.90
75893;DHT22;64572;50.950;3.676;2022-12-29T01:03:53;11.90;93.20
75893;DHT22;64572;50.950;3.676;2022-12-29T01:06:18;11.90;93.10
75893;DHT22;64572;50.950;3.676;2022-12-29T01:08:44;11.90;93.00
75893;DHT22;64572;50.950;3.676;2022-12-29T01:11:11;11.90;92.90
75893;DHT22;64572;50.950;3.676;2022-12-29T01:13:38;11.90;92.80
75893;DHT22;64572;50.950;3.676;2022-12-29T01:16:05;11.90;92.60
75893;DHT22;64572;50.950;3.676;2022-12-29T01:18:31;11.90;92.90
75893;DHT22;64572;50.950;3.676;2022-12-29T01:21:05;11.90;92.80
75893;DHT22;64572;50.950;3.676;2022-12-29T01:23:31;11.80;93.10
75893;DHT22;64572;50.950;3.676;2022-12-29T01:25:57;11.70;93.30
75893;DHT22;64572;50.950;3.676;2022-12-29T01:28:33;11.70;93.50
75893;DHT22;64572;50.950;3.676;2022-12-29T01:31:00;11.70;93.70
75893;DHT22;64572;50.950;3.676;2022-12-29T01:33:26;11.70;93.90
75893;DHT22;64572;50.950;3.676;2022-12-29T01:35:52;11.60;93.50
75893;DHT22;64572;50.950;3.676;2022-12-29T01:38:17;11.70;93.70
75893;DHT22;64572;50.950;3.676;2022-12-29T01:40:44;11.60;93.80
75893;DHT22;64572;50.950;3.676;2022-12-29T01:43:13;11.60;93.80
75893;DHT22;64572;50.950;3.676;2022-12-29T01:45:44;11.60;93.90
75893;DHT22;64572;50.950;3.676;2022-12-29T01:48:12;11.50;94.20
75893;DHT22;64572;50.950;3.676;2022-12-29T01:50:50;11.50;94.20
75893;DHT22;64572;50.950;3.676;2022-12-29T01:53:27;11.50;94.10
75893;DHT22;64572;50.950;3.676;2022-12-29T01:55:57;11.50;94.20
75893;DHT22;64572;50.950;3.676;2022-12-29T01:58:28;11.50;94.30
75893;DHT22;64572;50.950;3.676;2022-12-29T02:00:54;11.30;94.50
75893;DHT22;64572;50.950;3.676;2022-12-29T02:03:22;11.30;94.50
75893;DHT22;64572;50.950;3.676;2022-12-29T02:06:07;11.30;94.30
75893;DHT22;64572;50.950;3.676;2022-12-29T02:08:37;11.40;94.10
75893;DHT22;64572;50.950;3.676;2022-12-29T02:11:03;11.40;93.90
75893;DHT22;64572;50.950;3.676;2022-12-29T02:13:29;11.30;94.00
75893;DHT22;64572;50.950;3.676;2022-12-29T02:16:16;11.40;93.80
75893;DHT22;64572;50.950;3.676;2022-12-29T02:32:50;11.40;93.40
75893;DHT22;64572;50.950;3.676;2022-12-29T02:43:52;11.10;94.10
75893;DHT22;64572;50.950;3.676;2022-12-29T02:46:22;11.00;93.90
75893;DHT22;64572;50.950;3.676;2022-12-29T02:49:14;11.00;94.00
75893;DHT22;64572;50.950;3.676;2022-12-29T02:51:52;11.10;93.90
75893;DHT22;64572;50.950;3.676;2022-12-29T02:54:20;11.00;93.80
75893;DHT22;64572;50.950;3.676;2022-12-29T02:59:43;10.90;93.90
75893;DHT22;64572;50.950;3.676;2022-12-29T03:02:28;10.90;93.80
75893;DHT22;64572;50.950;3.676;2022-12-29T03:10:17;10.90;93.30
75893;DHT22;64572;50.950;3.676;2022-12-29T03:12:54;10.80;93.30
75893;DHT22;64572;50.950;3.676;2022-12-29T03:15:46;10.90;93.10
75893;DHT22;64572;50.950;3.676;2022-12-29T03:18:39;10.90;93.00
75893;DHT22;64572;50.950;3.676;2022-12-29T03:21:19;10.90;93.00
75893;DHT22;64572;50.950;3.676;2022-12-29T03:24:09;10.80;92.80
75893;DHT22;64572;50.950;3.676;2022-12-29T03:26:36;10.80;93.00
75893;DHT22;64572;50.950;3.676;2022-12-29T03:29:02;10.80;92.90
75893;DHT22;64572;50.950;3.676;2022-12-29T03:31:30;10.80;92.80
75893;DHT22;64572;50.950;3.676;2022-12-29T03:33:56;10.80;92.60
75893;DHT22;64572;50.950;3.676;2022-12-29T03:36:30;10.80;92.20
75893;DHT22;64572;50.950;3.676;2022-12-29T03:39:10;10.70;92.10
75893;DHT22;64572;50.950;3.676;2022-12-29T03:41:42;10.70;92.00
75893;DHT22;64572;50.950;3.676;2022-12-29T03:44:10;10.70;91.90
75893;DHT22;64572;50.950;3.676;2022-12-29T03:46:36;10.60;91.90
75893;DHT22;64572;50.950;3.676;2022-12-29T03:49:02;10.60;91.70
75893;DHT22;64572;50.950;3.676;2022-12-29T03:51:28;10.60;91.70
75893;DHT22;64572;50.950;3.676;2022-12-29T03:53:53;10.50;91.70
75893;DHT22;64572;50.950;3.676;2022-12-29T03:56:19;10.50;91.50
75893;DHT22;64572;50.950;3.676;2022-12-29T03:58:44;10.50;91.40
75893;DHT22;64572;50.950;3.676;2022-12-29T04:01:10;10.50;91.40
75893;DHT22;64572;50.950;3.676;2022-12-29T04:03:36;10.50;91.50
75893;DHT22;64572;50.950;3.676;2022-12-29T04:06:02;10.60;91.30
75893;DHT22;64572;50.950;3.676;2022-12-29T04:08:27;10.60;91.20
75893;DHT22;64572;50.950;3.676;2022-12-29T04:10:53;10.70;91.10
75893;DHT22;64572;50.950;3.676;2022-12-29T04:13:19;10.70;91.10
75893;DHT22;64572;50.950;3.676;2022-12-29T04:15:44;10.70;91.10
75893;DHT22;64572;50.950;3.676;2022-12-29T04:18:11;10.70;90.90
75893;DHT22;64572;50.950;3.676;2022-12-29T04:20:37;10.60;91.30
75893;DHT22;64572;50.950;3.676;2022-12-29T04:23:21;10.70;91.10
75893;DHT22;64572;50.950;3.676;2022-12-29T04:25:47;10.70;91.10
75893;DHT22;64572;50.950;3.676;2022-12-29T04:28:14;10.70;91.00
75893;DHT22;64572;50.950;3.676;2022-12-29T04:30:40;10.70;90.80
75893;DHT22;64572;50.950;3.676;2022-12-29T04:33:06;10.80;90.80
75893;DHT22;64572;50.950;3.676;2022-12-29T04:35:31;10.70;90.90
75893;DHT22;64572;50.950;3.676;2022-12-29T04:37:57;10.80;91.00
75893;DHT22;64572;50.950;3.676;2022-12-29T04:40:23;10.70;91.10
75893;DHT22;64572;50.950;3.676;2022-12-29T04:42:49;10.70;91.10
75893;DHT22;64572;50.950;3.676;2022-12-29T04:45:16;10.60;91.20
75893;DHT22;64572;50.950;3.676;2022-12-29T04:47:43;10.50;91.40
75893;DHT22;64572;50.950;3.676;2022-12-29T04:50:08;10.50;91.40
75893;DHT22;64572;50.950;3.676;2022-12-29T04:52:35;10.50;91.40
75893;DHT22;64572;50.950;3.676;2022-12-29T04:55:01;10.50;91.30
75893;DHT22;64572;50.950;3.676;2022-12-29T04:57:27;10.40;91.30
75893;DHT22;64572;50.950;3.676;2022-12-29T04:59:53;10.40;91.40
75893;DHT22;64572;50.950;3.676;2022-12-29T05:02:18;10.40;91.40
75893;DHT22;64572;50.950;3.676;2022-12-29T05:04:44;10.50;91.30
75893;DHT22;64572;50.950;3.676;2022-12-29T05:07:10;10.50;91.00
75893;DHT22;64572;50.950;3.676;2022-12-29T05:09:35;10.60;90.70
75893;DHT22;64572;50.950;3.676;2022-12-29T05:12:01;10.60;90.90
75893;DHT22;64572;50.950;3.676;2022-12-29T05:14:27;10.60;91.10
75893;DHT22;64572;50.950;3.676;2022-12-29T05:16:52;10.60;91.10
75893;DHT22;64572;50.950;3.676;2022-12-29T05:19:18;10.60;91.10
75893;DHT22;64572;50.950;3.676;2022-12-29T05:21:44;10.70;91.10
75893;DHT22;64572;50.950;3.676;2022-12-29T05:24:09;10.70;91.10
75893;DHT22;64572;50.950;3.676;2022-12-29T05:26:35;10.70;91.40
75893;DHT22;64572;50.950;3.676;2022-12-29T05:29:01;10.60;91.50
75893;DHT22;64572;50.950;3.676;2022-12-29T05:31:27;10.50;91.50
75893;DHT22;64572;50.950;3.676;2022-12-29T05:33:53;10.60;91.40
75893;DHT22;64572;50.950;3.676;2022-12-29T05:36:18;10.60;91.50
75893;DHT22;64572;50.950;3.676;2022-12-29T05:38:44;10.60;91.40
75893;DHT22;64572;50.950;3.676;2022-12-29T05:41:10;10.60;91.20
75893;DHT22;64572;50.950;3.676;2022-12-29T05:43:35;10.70;91.10
75893;DHT22;64572;50.950;3.676;2022-12-29T05:46:02;10.70;90.90
75893;DHT22;64572;50.950;3.676;2022-12-29T05:48:28;10.70;90.50
75893;DHT22;64572;50.950;3.676;2022-12-29T05:50:53;10.80;90.20
75893;DHT22;64572;50.950;3.676;2022-12-29T05:53:19;10.80;90.30
75893;DHT22;64572;50.950;3.676;2022-12-29T05:55:47;10.80;90.40
75893;DHT22;64572;50.950;3.676;2022-12-29T05:58:13;10.80;90.40
75893;DHT22;64572;50.950;3.676;2022-12-29T06:00:39;10.80;90.30
75893;DHT22;64572;50.950;3.676;2022-12-29T06:03:05;10.70;90.40
75893;DHT22;64572;50.950;3.676;2022-12-29T06:05:31;10.70;90.30
75893;DHT22;64572;50.950;3.676;2022-12-29T06:07:56;10.70;90.30
75893;DHT22;64572;50.950;3.676;2022-12-29T06:10:22;10.70;90.30
75893;DHT22;64572;50.950;3.676;2022-12-29T06:12:47;10.80;89.90
75893;DHT22;64572;50.950;3.676;2022-12-29T06:15:14;10.80;89.50
75893;DHT22;64572;50.950;3.676;2022-12-29T06:17:40;10.90;89.40
75893;DHT22;64572;50.950;3.676;2022-12-29T06:20:07;10.80;90.00
75893;DHT22;64572;50.950;3.676;2022-12-29T06:22:33;10.90;89.90
75893;DHT22;64572;50.950;3.676;2022-12-29T06:24:58;10.80;89.90
75893;DHT22;64572;50.950;3.676;2022-12-29T06:27:25;10.80;90.30
75893;DHT22;64572;50.950;3.676;2022-12-29T06:29:51;10.80;90.30
75893;DHT22;64572;50.950;3.676;2022-12-29T06:32:16;10.70;90.40
75893;DHT22;64572;50.950;3.676;2022-12-29T06:34:42;10.70;90.20
75893;DHT22;64572;50.950;3.676;2022-12-29T06:37:10;10.80;90.10
75893;DHT22;64572;50.950;3.676;2022-12-29T06:39:36;10.70;90.10
75893;DHT22;64572;50.950;3.676;2022-12-29T06:42:02;10.70;90.30
75893;DHT22;64572;50.950;3.676;2022-12-29T06:44:28;10.70;90.20
75893;DHT22;64572;50.950;3.676;2022-12-29T06:46:54;10.70;89.40
75893;DHT22;64572;50.950;3.676;2022-12-29T06:49:19;10.70;89.40
75893;DHT22;64572;50.950;3.676;2022-12-29T06:51:45;10.70;89.50
75893;DHT22;64572;50.950;3.676;2022-12-29T06:54:11;10.70;89.80
75893;DHT22;64572;50.950;3.676;2022-12-29T06:56:37;10.70;89.10
75893;DHT22;64572;50.950;3.676;2022-12-29T06:59:02;10.70;88.80
75893;DHT22;64572;50.950;3.676;2022-12-29T07:01:28;10.70;89.40
75893;DHT22;64572;50.950;3.676;2022-12-29T07:03:54;10.70;89.30
75893;DHT22;64572;50.950;3.676;2022-12-29T07:06:20;10.70;89.00
75893;DHT22;64572;50.950;3.676;2022-12-29T07:08:46;10.70;88.80
75893;DHT22;64572;50.950;3.676;2022-12-29T07:11:12;10.80;88.70
75893;DHT22;64572;50.950;3.676;2022-12-29T07:13:37;10.70;88.70
75893;DHT22;64572;50.950;3.676;2022-12-29T07:16:07;10.70;89.10
75893;DHT22;64572;50.950;3.676;2022-12-29T07:18:34;10.70;88.60
75893;DHT22;64572;50.950;3.676;2022-12-29T07:21:01;10.70;89.00
75893;DHT22;64572;50.950;3.676;2022-12-29T07:23:27;10.70;88.80
75893;DHT22;64572;50.950;3.676;2022-12-29T07:26:04;10.70;88.80
75893;DHT22;64572;50.950;3.676;2022-12-29T07:28:30;10.70;88.40
75893;DHT22;64572;50.950;3.676;2022-12-29T07:30:58;10.70;88.30
75893;DHT22;64572;50.950;3.676;2022-12-29T07:33:24;10.70;88.50
75893;DHT22;64572;50.950;3.676;2022-12-29T07:35:50;10.70;88.00
75893;DHT22;64572;50.950;3.676;2022-12-29T07:38:16;10.70;88.10
75893;DHT22;64572;50.950;3.676;2022-12-29T07:40:42;10.70;87.00
75893;DHT22;64572;50.950;3.676;2022-12-29T07:43:08;10.80;86.60
75893;DHT22;64572;50.950;3.676;2022-12-29T07:45:34;10.80;86.20
75893;DHT22;64572;50.950;3.676;2022-12-29T07:47:59;10.90;86.70
75893;DHT22;64572;50.950;3.676;2022-12-29T07:50:25;10.70;88.10
75893;DHT22;64572;50.950;3.676;2022-12-29T07:52:51;10.60;87.20
75893;DHT22;64572;50.950;3.676;2022-12-29T07:55:16;10.50;87.30
75893;DHT22;64572;50.950;3.676;2022-12-29T07:57:42;10.60;86.70
75893;DHT22;64572;50.950;3.676;2022-12-29T08:00:09;10.60;87.40
75893;DHT22;64572;50.950;3.676;2022-12-29T08:02:35;10.60;86.80
75893;DHT22;64572;50.950;3.676;2022-12-29T08:05:01;10.60;86.50
75893;DHT22;64572;50.950;3.676;2022-12-29T08:07:27;10.70;85.90
75893;DHT22;64572;50.950;3.676;2022-12-29T08:09:53;10.70;85.10
75893;DHT22;64572;50.950;3.676;2022-12-29T08:12:18;10.70;85.50
75893;DHT22;64572;50.950;3.676;2022-12-29T08:14:44;10.70;84.90
75893;DHT22;64572;50.950;3.676;2022-12-29T08:17:10;10.80;85.30
75893;DHT22;64572;50.950;3.676;2022-12-29T08:19:36;10.80;85.60
75893;DHT22;64572;50.950;3.676;2022-12-29T08:22:02;10.70;88.60
75893;DHT22;64572;50.950;3.676;2022-12-29T08:24:28;10.40;90.00
75893;DHT22;64572;50.950;3.676;2022-12-29T08:26:54;10.20;90.90
75893;DHT22;64572;50.950;3.676;2022-12-29T08:29:19;10.10;90.90
75893;DHT22;64572;50.950;3.676;2022-12-29T08:31:47;10.00;91.00
75893;DHT22;64572;50.950;3.676;2022-12-29T08:34:12;10.00;91.00
75893;DHT22;64572;50.950;3.676;2022-12-29T08:36:38;10.00;91.40
75893;DHT22;64572;50.950;3.676;2022-12-29T08:39:04;10.00;91.30
75893;DHT22;64572;50.950;3.676;2022-12-29T08:41:30;9.90;92.20
75893;DHT22;64572;50.950;3.676;2022-12-29T08:43:56;9.80;92.30
75893;DHT22;64572;50.950;3.676;2022-12-29T08:46:22;9.80;92.70
75893;DHT22;64572;50.950;3.676;2022-12-29T08:48:47;9.60;93.20
75893;DHT22;64572;50.950;3.676;2022-12-29T08:51:13;9.60;93.40
75893;DHT22;64572;50.950;3.676;2022-12-29T08:53:39;9.50;93.60
75893;DHT22;64572;50.950;3.676;2022-12-29T08:56:05;9.50;93.90
75893;DHT22;64572;50.950;3.676;2022-12-29T08:58:32;9.50;93.90
75893;DHT22;64572;50.950;3.676;2022-12-29T09:00:58;9.50;94.20
75893;DHT22;64572;50.950;3.676;2022-12-29T09:03:24;9.50;94.70
75893;DHT22;64572;50.950;3.676;2022-12-29T09:05:51;9.40;94.80
75893;DHT22;64572;50.950;3.676;2022-12-29T09:08:17;9.40;94.80
75893;DHT22;64572;50.950;3.676;2022-12-29T09:10:44;9.40;94.70
75893;DHT22;64572;50.950;3.676;2022-12-29T09:13:12;9.50;94.80
75893;DHT22;64572;50.950;3.676;2022-12-29T09:15:38;9.50;94.90
75893;DHT22;64572;50.950;3.676;2022-12-29T09:18:04;9.50;94.90
75893;DHT22;64572;50.950;3.676;2022-12-29T09:20:30;9.50;95.10
75893;DHT22;64572;50.950;3.676;2022-12-29T09:22:56;9.50;95.40
75893;DHT22;64572;50.950;3.676;2022-12-29T09:25:21;9.50;95.20
75893;DHT22;64572;50.950;3.676;2022-12-29T09:27:50;9.50;95.10
75893;DHT22;64572;50.950;3.676;2022-12-29T09:30:18;9.50;94.60
75893;DHT22;64572;50.950;3.676;2022-12-29T09:32:44;9.50;94.90
75893;DHT22;64572;50.950;3.676;2022-12-29T09:35:10;9.60;94.10
75893;DHT22;64572;50.950;3.676;2022-12-29T09:37:36;9.60;94.30
75893;DHT22;64572;50.950;3.676;2022-12-29T09:40:03;9.70;94.00
75893;DHT22;64572;50.950;3.676;2022-12-29T09:42:59;9.70;94.10
75893;DHT22;64572;50.950;3.676;2022-12-29T09:48:00;9.70;94.30
75893;DHT22;64572;50.950;3.676;2022-12-29T09:50:31;9.70;94.20
75893;DHT22;64572;50.950;3.676;2022-12-29T09:53:08;9.70;94.30
75893;DHT22;64572;50.950;3.676;2022-12-29T09:55:53;9.60;94.70
75893;DHT22;64572;50.950;3.676;2022-12-29T10:03:50;9.50;95.30
75893;DHT22;64572;50.950;3.676;2022-12-29T10:09:10;9.60;95.70
75893;DHT22;64572;50.950;3.676;2022-12-29T10:22:43;9.80;94.50
75893;DHT22;64572;50.950;3.676;2022-12-29T10:25:19;9.90;94.10
75893;DHT22;64572;50.950;3.676;2022-12-29T10:27:48;9.90;94.20
75893;DHT22;64572;50.950;3.676;2022-12-29T10:30:14;10.00;93.10
75893;DHT22;64572;50.950;3.676;2022-12-29T10:32:54;10.00;92.60
75893;DHT22;64572;50.950;3.676;2022-12-29T10:35:25;10.10;92.50
75893;DHT22;64572;50.950;3.676;2022-12-29T10:45:47;10.40;91.00
75893;DHT22;64572;50.950;3.676;2022-12-29T10:48:31;10.40;91.50
75893;DHT22;64572;50.950;3.676;2022-12-29T10:51:00;10.40;91.10
75893;DHT22;64572;50.950;3.676;2022-12-29T10:53:57;10.50;90.90
75893;DHT22;64572;50.950;3.676;2022-12-29T10:56:36;10.60;91.00
75893;DHT22;64572;50.950;3.676;2022-12-29T10:59:37;10.50;90.90
75893;DHT22;64572;50.950;3.676;2022-12-29T11:05:01;10.50;91.10
75893;DHT22;64572;50.950;3.676;2022-12-29T11:07:30;10.60;91.00
75893;DHT22;64572;50.950;3.676;2022-12-29T11:10:20;10.70;90.90
75893;DHT22;64572;50.950;3.676;2022-12-29T11:13:01;10.70;90.60
75893;DHT22;64572;50.950;3.676;2022-12-29T11:15:28;10.80;90.60
75893;DHT22;64572;50.950;3.676;2022-12-29T11:18:03;10.80;90.70
75893;DHT22;64572;50.950;3.676;2022-12-29T11:20:32;10.80;90.30
75893;DHT22;64572;50.950;3.676;2022-12-29T11:22:59;10.70;90.00
75893;DHT22;64572;50.950;3.676;2022-12-29T11:25:25;10.60;90.50
75893;DHT22;64572;50.950;3.676;2022-12-29T11:30:29;10.50;90.70
75893;DHT22;64572;50.950;3.676;2022-12-29T11:32:55;10.60;90.70
75893;DHT22;64572;50.950;3.676;2022-12-29T11:35:36;10.50;91.40
75893;DHT22;64572;50.950;3.676;2022-12-29T11:38:04;10.60;91.00
75893;DHT22;64572;50.950;3.676;2022-12-29T11:40:31;10.60;90.80
75893;DHT22;64572;50.950;3.676;2022-12-29T11:43:02;10.70;90.60
75893;DHT22;64572;50.950;3.676;2022-12-29T11:45:31;10.60;91.10
75893;DHT22;64572;50.950;3.676;2022-12-29T11:48:05;10.60;91.00
75893;DHT22;64572;50.950;3.676;2022-12-29T11:50:35;10.80;90.40
75893;DHT22;64572;50.950;3.676;2022-12-29T11:55:33;11.00;90.00
75893;DHT22;64572;50.950;3.676;2022-12-29T11:58:02;11.00;90.40
75893;DHT22;64572;50.950;3.676;2022-12-29T12:00:33;10.90;89.00
75893;DHT22;64572;50.950;3.676;2022-12-29T12:03:04;10.90;89.20
75893;DHT22;64572;50.950;3.676;2022-12-29T12:05:46;10.90;88.80
75893;DHT22;64572;50.950;3.676;2022-12-29T12:08:23;11.00;88.20
75893;DHT22;64572;50.950;3.676;2022-12-29T12:11:11;10.70;90.00
75893;DHT22;64572;50.950;3.676;2022-12-29T12:16:20;10.60;90.40
75893;DHT22;64572;50.950;3.676;2022-12-29T12:18:55;10.60;89.70
75893;DHT22;64572;50.950;3.676;2022-12-29T12:21:43;10.60;89.80
75893;DHT22;64572;50.950;3.676;2022-12-29T12:27:01;10.50;90.50
75893;DHT22;64572;50.950;3.676;2022-12-29T12:29:35;10.90;90.10
75893;DHT22;64572;50.950;3.676;2022-12-29T12:32:16;11.40;87.20
75893;DHT22;64572;50.950;3.676;2022-12-29T12:34:44;12.10;83.40
75893;DHT22;64572;50.950;3.676;2022-12-29T12:45:27;10.90;88.50
75893;DHT22;64572;50.950;3.676;2022-12-29T12:51:08;10.90;89.10
75893;DHT22;64572;50.950;3.676;2022-12-29T12:54:01;10.60;89.80
75893;DHT22;64572;50.950;3.676;2022-12-29T12:59:26;10.40;91.40
75893;DHT22;64572;50.950;3.676;2022-12-29T13:10:36;10.40;90.90
75893;DHT22;64572;50.950;3.676;2022-12-29T13:16:23;10.30;91.40
75893;DHT22;64572;50.950;3.676;2022-12-29T13:24:53;9.30;95.40
75893;DHT22;64572;50.950;3.676;2022-12-29T13:27:42;9.30;95.80
75893;DHT22;64572;50.950;3.676;2022-12-29T13:30:17;9.30;95.40
75893;DHT22;64572;50.950;3.676;2022-12-29T13:33:07;9.20;95.50
75893;DHT22;64572;50.950;3.676;2022-12-29T13:41:06;9.50;94.30
75893;DHT22;64572;50.950;3.676;2022-12-29T13:43:36;9.40;93.40
75893;DHT22;64572;50.950;3.676;2022-12-29T13:46:24;9.20;93.10
75893;DHT22;64572;50.950;3.676;2022-12-29T13:49:01;9.10;93.30
75893;DHT22;64572;50.950;3.676;2022-12-29T13:51:30;9.10;93.00
75893;DHT22;64572;50.950;3.676;2022-12-29T13:59:57;9.00;92.90
75893;DHT22;64572;50.950;3.676;2022-12-29T14:07:44;9.00;92.20
75893;DHT22;64572;50.950;3.676;2022-12-29T15:31:06;8.60;92.30
75893;DHT22;64572;50.950;3.676;2022-12-29T15:33:38;8.80;90.40
75893;DHT22;64572;50.950;3.676;2022-12-29T15:36:20;8.70;90.70
75893;DHT22;64572;50.950;3.676;2022-12-29T15:38:47;8.60;90.80
75893;DHT22;64572;50.950;3.676;2022-12-29T15:46:32;8.60;91.10
75893;DHT22;64572;50.950;3.676;2022-12-29T15:48:58;8.60;91.10
75893;DHT22;64572;50.950;3.676;2022-12-29T15:51:30;8.60;91.10
75893;DHT22;64572;50.950;3.676;2022-12-29T15:53:58;8.60;91.30
75893;DHT22;64572;50.950;3.676;2022-12-29T15:56:28;8.60;91.20
75893;DHT22;64572;50.950;3.676;2022-12-29T15:58:54;8.60;91.40
75893;DHT22;64572;50.950;3.676;2022-12-29T16:01:31;8.60;91.50
75893;DHT22;64572;50.950;3.676;2022-12-29T16:04:04;8.50;91.70
75893;DHT22;64572;50.950;3.676;2022-12-29T16:11:37;8.40;92.20
75893;DHT22;64572;50.950;3.676;2022-12-29T16:14:17;8.40;92.30
75893;DHT22;64572;50.950;3.676;2022-12-29T16:16:45;8.30;92.40
75893;DHT22;64572;50.950;3.676;2022-12-29T16:19:18;8.30;92.60
75893;DHT22;64572;50.950;3.676;2022-12-29T16:21:45;8.30;92.50
75893;DHT22;64572;50.950;3.676;2022-12-29T16:24:26;8.40;92.50
75893;DHT22;64572;50.950;3.676;2022-12-29T16:27:02;8.30;92.50
75893;DHT22;64572;50.950;3.676;2022-12-29T16:29:32;8.30;92.50
75893;DHT22;64572;50.950;3.676;2022-12-29T16:31:59;8.30;92.60
75893;DHT22;64572;50.950;3.676;2022-12-29T16:34:29;8.40;92.40
75893;DHT22;64572;50.950;3.676;2022-12-29T16:41:52;8.40;92.30
75893;DHT22;64572;50.950;3.676;2022-12-29T16:44:27;8.30;92.40
75893;DHT22;64572;50.950;3.676;2022-12-29T16:49:34;8.40;92.30
75893;DHT22;64572;50.950;3.676;2022-12-29T16:52:17;8.40;92.10
75893;DHT22;64572;50.950;3.676;2022-12-29T16:54:51;8.40;92.10
75893;DHT22;64572;50.950;3.676;2022-12-29T16:57:36;8.50;92.00
75893;DHT22;64572;50.950;3.676;2022-12-29T17:00:19;8.50;92.00
75893;DHT22;64572;50.950;3.676;2022-12-29T17:02:45;8.50;92.10
75893;DHT22;64572;50.950;3.676;2022-12-29T17:05:16;8.40;92.10
75893;DHT22;64572;50.950;3.676;2022-12-29T17:07:43;8.40;92.10
75893;DHT22;64572;50.950;3.676;2022-12-29T17:10:10;8.40;92.10
75893;DHT22;64572;50.950;3.676;2022-12-29T17:12:36;8.40;92.00
75893;DHT22;64572;50.950;3.676;2022-12-29T17:15:03;8.40;91.90
75893;DHT22;64572;50.950;3.676;2022-12-29T17:20:22;8.50;91.80
75893;DHT22;64572;50.950;3.676;2022-12-29T17:22:50;8.40;91.80
75893;DHT22;64572;50.950;3.676;2022-12-29T17:25:20;8.50;91.70
75893;DHT22;64572;50.950;3.676;2022-12-29T17:28:30;8.50;91.60
75893;DHT22;64572;50.950;3.676;2022-12-29T17:30:36;8.40;91.60
75893;DHT22;64572;50.950;3.676;2022-12-29T17:33:06;8.40;91.70
75893;DHT22;64572;50.950;3.676;2022-12-29T17:35:38;8.40;91.60
75893;DHT22;64572;50.950;3.676;2022-12-29T17:38:22;8.40;91.70
75893;DHT22;64572;50.950;3.676;2022-12-29T17:40:50;8.40;91.60
75893;DHT22;64572;50.950;3.676;2022-12-29T17:43:16;8.30;91.90
75893;DHT22;64572;50.950;3.676;2022-12-29T17:45:43;8.30;92.00
75893;DHT22;64572;50.950;3.676;2022-12-29T17:48:13;8.30;91.90
75893;DHT22;64572;50.950;3.676;2022-12-29T17:50:39;8.30;91.70
75893;DHT22;64572;50.950;3.676;2022-12-29T17:53:10;8.30;91.80
75893;DHT22;64572;50.950;3.676;2022-12-29T17:55:36;8.40;91.80
75893;DHT22;64572;50.950;3.676;2022-12-29T17:58:18;8.30;91.60
75893;DHT22;64572;50.950;3.676;2022-12-29T18:00:45;8.30;91.50
75893;DHT22;64572;50.950;3.676;2022-12-29T18:03:16;8.30;91.30
75893;DHT22;64572;50.950;3.676;2022-12-29T18:05:43;8.40;91.30
75893;DHT22;64572;50.950;3.676;2022-12-29T18:08:09;8.40;91.30
75893;DHT22;64572;50.950;3.676;2022-12-29T18:10:37;8.50;91.00
75893;DHT22;64572;50.950;3.676;2022-12-29T18:13:03;8.50;91.00
75893;DHT22;64572;50.950;3.676;2022-12-29T18:15:31;8.40;91.20
75893;DHT22;64572;50.950;3.676;2022-12-29T18:18:18;8.40;91.00
75893;DHT22;64572;50.950;3.676;2022-12-29T18:20:45;8.50;90.90
75893;DHT22;64572;50.950;3.676;2022-12-29T18:26:00;8.50;90.50
75893;DHT22;64572;50.950;3.676;2022-12-29T18:28:27;8.50;90.50
75893;DHT22;64572;50.950;3.676;2022-12-29T18:30:54;8.40;90.50
75893;DHT22;64572;50.950;3.676;2022-12-29T18:33:20;8.50;90.30
75893;DHT22;64572;50.950;3.676;2022-12-29T18:35:59;8.50;90.10
75893;DHT22;64572;50.950;3.676;2022-12-29T18:38:26;8.40;89.70
75893;DHT22;64572;50.950;3.676;2022-12-29T18:40:52;8.50;89.60
75893;DHT22;64572;50.950;3.676;2022-12-29T18:43:19;8.50;89.80
75893;DHT22;64572;50.950;3.676;2022-12-29T18:45:45;8.40;90.20
75893;DHT22;64572;50.950;3.676;2022-12-29T18:48:12;8.40;90.10
75893;DHT22;64572;50.950;3.676;2022-12-29T18:50:38;8.30;90.70
75893;DHT22;64572;50.950;3.676;2022-12-29T18:53:04;8.40;90.00
75893;DHT22;64572;50.950;3.676;2022-12-29T18:55:30;8.50;90.00
75893;DHT22;64572;50.950;3.676;2022-12-29T18:57:56;8.40;90.20
75893;DHT22;64572;50.950;3.676;2022-12-29T19:00:22;8.30;90.40
75893;DHT22;64572;50.950;3.676;2022-12-29T19:02:50;8.20;90.60
75893;DHT22;64572;50.950;3.676;2022-12-29T19:05:30;8.20;90.60
75893;DHT22;64572;50.950;3.676;2022-12-29T19:07:57;8.20;90.60
75893;DHT22;64572;50.950;3.676;2022-12-29T19:10:24;8.30;90.50
75893;DHT22;64572;50.950;3.676;2022-12-29T19:12:50;8.30;90.20
75893;DHT22;64572;50.950;3.676;2022-12-29T19:15:25;8.30;90.30
75893;DHT22;64572;50.950;3.676;2022-12-29T19:17:52;8.20;90.50
75893;DHT22;64572;50.950;3.676;2022-12-29T19:20:39;8.20;90.80
75893;DHT22;64572;50.950;3.676;2022-12-29T19:23:09;8.10;91.10
75893;DHT22;64572;50.950;3.676;2022-12-29T19:25:36;8.10;91.20
75893;DHT22;64572;50.950;3.676;2022-12-29T19:28:04;8.10;91.50
75893;DHT22;64572;50.950;3.676;2022-12-29T19:30:30;8.00;91.80
75893;DHT22;64572;50.950;3.676;2022-12-29T19:32:58;7.90;92.00
75893;DHT22;64572;50.950;3.676;2022-12-29T19:35:27;7.80;92.30
75893;DHT22;64572;50.950;3.676;2022-12-29T19:37:53;7.80;92.40
75893;DHT22;64572;50.950;3.676;2022-12-29T19:40:22;7.80;92.50
75893;DHT22;64572;50.950;3.676;2022-12-29T19:42:47;7.80;92.60